createdAt,value
2023-04-17T00:02:22.381Z,9.91
2023-04-17T00:04:49.289Z,9.51
2023-04-17T00:07:16.235Z,9.23
2023-04-17T00:09:42.872Z,8.72
2023-04-17T00:12:09.525Z,8.32
2023-04-17T00:14:36.136Z,8.09
2023-04-17T00:17:02.789Z,8.24
2023-04-17T00:19:29.408Z,7.76
2023-04-17T00:21:56.062Z,7.38
2023-04-17T00:24:22.719Z,7.60
2023-04-17T00:26:49.400Z,7.96
2023-04-17T00:29:15.984Z,7.59
2023-04-17T00:31:42.672Z,7.53
2023-04-17T00:34:09.290Z,7.23
2023-04-17T00:36:35.911Z,7.15
2023-04-17T00:39:02.584Z,7.35
2023-04-17T00:41:29.235Z,7.25
2023-04-17T00:43:55.871Z,7.45
2023-04-17T00:46:22.566Z,7.76
2023-04-17T00:48:49.633Z,7.38
2023-04-17T00:51:16.713Z,7.00
2023-04-17T00:53:44.041Z,7.15
2023-04-17T00:56:10.812Z,7.11
2023-04-17T00:58:37.998Z,6.81
2023-04-17T01:01:07.173Z,6.47
2023-04-17T01:03:34.124Z,6.42
2023-04-17T01:06:01.478Z,6.18
2023-04-17T01:08:39.220Z,6.15
2023-04-17T01:11:05.867Z,5.97
2023-04-17T01:13:32.532Z,5.93
2023-04-17T01:15:59.181Z,5.22
2023-04-17T01:18:26.560Z,4.93
2023-04-17T01:20:53.237Z,4.50
2023-04-17T01:23:19.890Z,4.53
2023-04-17T01:25:46.577Z,4.14
2023-04-17T01:28:13.217Z,4.00
2023-04-17T01:30:39.938Z,3.82
2023-04-17T01:33:06.673Z,3.78
2023-04-17T01:35:33.470Z,3.94
2023-04-17T01:38:00.222Z,3.65
2023-04-17T01:40:26.908Z,3.56
2023-04-17T01:42:53.591Z,3.62
2023-04-17T01:45:20.369Z,3.87
2023-04-17T01:47:46.986Z,3.65
2023-04-17T01:50:13.770Z,3.51
2023-04-17T01:52:40.400Z,3.61
2023-04-17T01:55:07.439Z,3.40
2023-04-17T01:57:34.108Z,3.56
2023-04-17T02:00:00.737Z,3.32
2023-04-17T02:02:27.501Z,3.48
2023-04-17T02:04:54.242Z,3.35
2023-04-17T02:07:20.870Z,3.29
2023-04-17T02:09:47.537Z,3.66
2023-04-17T02:12:14.286Z,3.58
2023-04-17T02:14:40.913Z,3.55
2023-04-17T02:17:07.551Z,3.34
2023-04-17T02:19:34.164Z,3.45
2023-04-17T02:22:00.787Z,3.40
2023-04-17T02:24:27.413Z,3.57
2023-04-17T02:26:54.048Z,3.41
2023-04-17T02:29:21.127Z,3.16
2023-04-17T02:31:47.849Z,3.21
2023-04-17T02:34:14.465Z,3.19
2023-04-17T02:36:41.107Z,3.17
2023-04-17T02:39:07.734Z,3.27
2023-04-17T02:41:34.343Z,3.13
2023-04-17T02:44:01.219Z,3.36
2023-04-17T02:46:27.842Z,3.25
2023-04-17T02:48:54.552Z,3.11
2023-04-17T02:51:21.178Z,3.00
2023-04-17T02:53:47.840Z,2.88
2023-04-17T02:56:14.508Z,3.12
2023-04-17T02:58:41.130Z,3.14
2023-04-17T03:01:07.774Z,3.34
2023-04-17T03:03:34.743Z,3.20
2023-04-17T03:06:01.832Z,2.98
2023-04-17T03:08:28.568Z,3.01
2023-04-17T03:10:55.755Z,2.95
2023-04-17T03:13:22.363Z,3.09
2023-04-17T03:15:49.032Z,3.14
2023-04-17T03:18:15.625Z,3.17
2023-04-17T03:20:42.218Z,3.20
2023-04-17T03:23:08.876Z,3.69
2023-04-17T03:25:35.537Z,3.67
2023-04-17T03:28:02.234Z,3.60
2023-04-17T03:30:28.904Z,3.86
2023-04-17T03:32:55.751Z,4.02
2023-04-17T03:35:22.448Z,3.98
2023-04-17T03:37:49.076Z,3.88
2023-04-17T03:40:15.941Z,3.93
2023-04-17T03:42:42.568Z,4.18
2023-04-17T03:45:09.634Z,4.34
2023-04-17T03:47:36.292Z,4.06
2023-04-17T03:50:03.230Z,4.13
2023-04-17T03:52:29.870Z,4.19
2023-04-17T03:54:56.501Z,4.53
2023-04-17T03:57:23.125Z,4.24
2023-04-17T03:59:49.807Z,4.54
2023-04-17T04:02:16.446Z,4.61
2023-04-17T04:04:43.233Z,4.87
2023-04-17T04:07:10.089Z,4.96
2023-04-17T04:09:36.720Z,5.55
2023-04-17T04:12:03.405Z,6.13
2023-04-17T04:14:30.039Z,5.87
2023-04-17T04:16:56.681Z,6.36
2023-04-17T04:19:23.295Z,6.18
2023-04-17T04:21:49.933Z,6.37
2023-04-17T04:24:16.548Z,6.28
2023-04-17T04:26:43.308Z,6.39
2023-04-17T04:29:10.110Z,6.61
2023-04-17T04:31:37.273Z,6.73
2023-04-17T04:34:03.924Z,6.79
2023-04-17T04:36:30.545Z,7.10
2023-04-17T04:38:57.309Z,6.63
2023-04-17T04:41:23.923Z,6.92
2023-04-17T04:43:50.575Z,7.27
2023-04-17T04:46:17.209Z,6.98
2023-04-17T04:48:43.836Z,7.24
2023-04-17T04:51:10.494Z,7.38
2023-04-17T04:53:37.109Z,7.49
2023-04-17T04:56:03.860Z,7.28
2023-04-17T04:58:30.528Z,7.03
2023-04-17T05:00:57.376Z,7.46
2023-04-17T05:03:24.185Z,7.30
2023-04-17T05:05:50.926Z,7.54
2023-04-17T05:08:17.551Z,7.03
2023-04-17T05:10:44.408Z,7.00
2023-04-17T05:13:11.030Z,7.17
2023-04-17T05:15:37.637Z,6.46
2023-04-17T05:18:04.344Z,6.29
2023-04-17T05:20:30.970Z,5.96
2023-04-17T05:22:57.581Z,6.28
2023-04-17T05:25:24.510Z,6.21
2023-04-17T05:27:51.259Z,6.42
2023-04-17T05:30:17.897Z,5.64
2023-04-17T05:32:44.519Z,5.01
2023-04-17T05:35:11.214Z,5.07
2023-04-17T05:37:37.854Z,4.88
2023-04-17T05:40:04.771Z,4.74
2023-04-17T05:42:31.409Z,4.80
2023-04-17T05:44:58.041Z,4.72
2023-04-17T05:47:24.728Z,4.34
2023-04-17T05:49:51.366Z,4.35
2023-04-17T05:52:18.150Z,4.48
2023-04-17T05:54:47.413Z,4.63
2023-04-17T05:57:13.989Z,4.29
2023-04-17T05:59:40.582Z,4.58
2023-04-17T06:02:07.442Z,4.46
2023-04-17T06:04:34.852Z,4.54
2023-04-17T06:07:01.650Z,4.38
2023-04-17T06:09:28.596Z,4.19
2023-04-17T06:11:58.072Z,3.82
2023-04-17T06:14:24.709Z,4.00
2023-04-17T06:16:51.371Z,4.37
2023-04-17T06:19:18.060Z,4.39
2023-04-17T06:21:44.694Z,4.38
2023-04-17T06:24:11.282Z,4.67
2023-04-17T06:26:37.903Z,4.90
2023-04-17T06:29:04.586Z,5.15
2023-04-17T06:31:31.269Z,5.22
2023-04-17T06:33:58.007Z,5.22
2023-04-17T06:36:24.614Z,5.31
2023-04-17T06:38:51.255Z,4.85
2023-04-17T06:41:20.696Z,4.91
2023-04-17T06:43:47.389Z,4.96
2023-04-17T06:46:14.397Z,4.61
2023-04-17T06:48:41.103Z,4.42
2023-04-17T06:51:07.756Z,4.57
2023-04-17T06:53:34.392Z,4.18
2023-04-17T06:56:01.040Z,4.10
2023-04-17T06:58:27.659Z,4.35
2023-04-17T07:00:54.283Z,4.31
2023-04-17T07:03:21.093Z,4.44
2023-04-17T07:05:47.852Z,4.13
2023-04-17T07:08:14.457Z,3.70
2023-04-17T07:10:41.261Z,3.86
2023-04-17T07:13:07.860Z,3.38
2023-04-17T07:15:34.570Z,3.27
2023-04-17T07:18:01.199Z,2.83
2023-04-17T07:20:29.745Z,2.27
2023-04-17T07:22:56.395Z,2.31
2023-04-17T07:25:23.022Z,2.13
2023-04-17T07:27:49.878Z,1.94
2023-04-17T07:30:16.588Z,1.89
2023-04-17T07:32:43.321Z,1.77
2023-04-17T07:35:10.095Z,2.05
2023-04-17T07:37:36.776Z,1.89
2023-04-17T07:40:03.655Z,1.60
2023-04-17T07:42:30.500Z,1.75
2023-04-17T07:44:57.293Z,1.54
2023-04-17T07:47:26.235Z,1.26
2023-04-17T07:49:52.925Z,1.28
2023-04-17T07:52:19.540Z,1.17
2023-04-17T07:54:46.148Z,1.30
2023-04-17T07:57:12.769Z,1.52
2023-04-17T07:59:39.411Z,1.43
2023-04-17T08:02:06.316Z,1.44
2023-04-17T08:04:33.381Z,1.40
2023-04-17T08:07:00.383Z,1.66
2023-04-17T08:09:27.036Z,1.64
2023-04-17T08:11:57.724Z,1.48
2023-04-17T08:14:25.520Z,1.58
2023-04-17T08:16:52.371Z,1.57
2023-04-17T08:19:19.159Z,1.50
2023-04-17T08:21:49.372Z,1.16
2023-04-17T08:24:18.717Z,0.98
2023-04-17T08:26:46.254Z,1.06
2023-04-17T08:29:13.113Z,1.01
2023-04-17T08:31:39.909Z,1.13
2023-04-17T08:34:14.549Z,1.13
2023-04-17T08:36:42.211Z,1.09
2023-04-17T08:39:08.883Z,1.20
2023-04-17T08:41:43.336Z,1.26
2023-04-17T08:44:10.323Z,1.12
2023-04-17T08:46:38.844Z,0.86
2023-04-17T08:49:05.649Z,1.01
2023-04-17T08:51:32.463Z,0.77
2023-04-17T08:53:59.174Z,0.82
2023-04-17T08:56:25.804Z,0.75
2023-04-17T08:58:52.486Z,0.76
2023-04-17T09:01:19.209Z,0.83
2023-04-17T09:03:49.854Z,0.85
2023-04-17T09:06:16.565Z,0.88
2023-04-17T09:09:03.381Z,0.81
2023-04-17T09:11:30.128Z,0.79
2023-04-17T09:13:56.805Z,0.91
2023-04-17T09:16:23.489Z,0.71
2023-04-17T09:18:50.342Z,0.66
2023-04-17T09:21:18.579Z,0.79
2023-04-17T09:23:46.503Z,0.74
2023-04-17T09:26:15.282Z,0.79
2023-04-17T09:28:59.922Z,0.79
2023-04-17T09:31:29.780Z,0.72
2023-04-17T09:34:10.696Z,0.82
2023-04-17T09:36:42.078Z,0.87
2023-04-17T09:39:22.977Z,0.79
2023-04-17T09:41:50.195Z,0.84
2023-04-17T09:44:28.263Z,0.76
2023-04-17T09:46:57.284Z,0.92
2023-04-17T09:49:34.252Z,0.94
2023-04-17T09:52:01.868Z,0.93
2023-04-17T09:54:30.765Z,1.15
2023-04-17T09:56:58.877Z,1.16
2023-04-17T09:59:26.701Z,1.25
2023-04-17T10:01:53.608Z,1.39
2023-04-17T10:04:20.563Z,1.45
2023-04-17T10:06:47.497Z,1.62
2023-04-17T10:09:14.261Z,1.54
2023-04-17T10:11:44.786Z,1.40
2023-04-17T10:14:25.943Z,1.47
2023-04-17T10:16:52.989Z,1.45
2023-04-17T10:19:34.258Z,1.57
2023-04-17T10:22:16.041Z,1.34
2023-04-17T10:24:43.250Z,1.53
2023-04-17T10:27:25.095Z,1.38
2023-04-17T10:29:55.345Z,1.51
2023-04-17T10:32:23.313Z,1.49
2023-04-17T10:34:49.968Z,1.27
2023-04-17T10:37:16.603Z,1.31
2023-04-17T10:40:10.521Z,1.27
2023-04-17T10:42:37.150Z,1.46
2023-04-17T10:45:04.142Z,1.65
2023-04-17T10:47:33.010Z,1.69
2023-04-17T10:50:04.354Z,1.73
2023-04-17T10:52:33.940Z,1.58
2023-04-17T10:55:20.189Z,1.72
2023-04-17T10:57:55.964Z,1.65
2023-04-17T11:00:30.582Z,1.62
2023-04-17T11:03:01.099Z,1.56
2023-04-17T11:05:28.292Z,1.64
2023-04-17T11:07:55.025Z,1.75
2023-04-17T11:10:22.252Z,1.94
2023-04-17T11:12:53.443Z,1.99
2023-04-17T11:15:30.595Z,1.68
2023-04-17T11:17:59.475Z,1.59
2023-04-17T11:20:29.252Z,1.76
2023-04-17T11:22:56.839Z,1.50
2023-04-17T11:25:29.071Z,1.65
2023-04-17T11:28:03.035Z,1.55
2023-04-17T11:30:39.837Z,1.59
2023-04-17T11:33:08.258Z,1.60
2023-04-17T11:35:40.256Z,1.57
2023-04-17T11:38:09.815Z,1.67
2023-04-17T11:40:36.725Z,1.49
2023-04-17T11:43:07.412Z,1.78
2023-04-17T11:45:36.026Z,1.80
2023-04-17T11:48:03.794Z,1.81
2023-04-17T11:50:32.537Z,1.65
2023-04-17T11:53:04.049Z,1.54
2023-04-17T11:55:33.952Z,1.45
2023-04-17T11:58:03.579Z,1.48
2023-04-17T12:00:30.531Z,1.49
2023-04-17T12:02:59.642Z,1.44
2023-04-17T12:05:28.684Z,1.45
2023-04-17T12:08:13.969Z,1.21
2023-04-17T12:10:44.789Z,1.52
2023-04-17T12:13:12.028Z,1.46
2023-04-17T12:15:39.396Z,1.33
2023-04-17T12:18:06.711Z,1.36
2023-04-17T12:20:33.923Z,1.21
2023-04-17T12:23:00.860Z,1.29
2023-04-17T12:25:27.808Z,1.64
2023-04-17T12:27:54.694Z,1.47
2023-04-17T12:30:21.305Z,1.57
2023-04-17T12:32:47.972Z,1.55
2023-04-17T12:35:15.790Z,1.58
2023-04-17T12:37:42.901Z,1.89
2023-04-17T12:40:10.016Z,1.90
2023-04-17T12:42:48.355Z,1.96
2023-04-17T12:45:18.044Z,1.71
2023-04-17T12:47:44.719Z,1.77
2023-04-17T12:50:12.866Z,1.82
2023-04-17T12:52:41.152Z,1.71
2023-04-17T12:55:09.055Z,1.76
2023-04-17T12:57:36.025Z,1.99
2023-04-17T13:00:04.514Z,1.80
2023-04-17T13:02:34.278Z,1.96
2023-04-17T13:05:01.086Z,1.92
2023-04-17T13:07:28.797Z,1.84
2023-04-17T13:09:55.470Z,1.91
2023-04-17T13:12:22.174Z,1.72
2023-04-17T13:14:51.192Z,1.72
2023-04-17T13:17:17.908Z,1.82
2023-04-17T13:19:44.646Z,1.73
2023-04-17T13:22:11.250Z,1.78
2023-04-17T13:24:37.874Z,1.68
2023-04-17T13:27:04.722Z,1.75
2023-04-17T13:29:31.481Z,1.62
2023-04-17T13:31:58.121Z,1.61
2023-04-17T13:34:32.102Z,1.61
2023-04-17T13:36:58.754Z,1.70
2023-04-17T13:39:25.407Z,1.76
2023-04-17T13:41:52.177Z,1.59
2023-04-17T13:44:18.924Z,1.59
2023-04-17T13:46:45.631Z,1.58
2023-04-17T13:49:12.564Z,1.91
2023-04-17T13:51:39.345Z,1.58
2023-04-17T13:54:06.167Z,2.00
2023-04-17T13:56:32.796Z,1.89
2023-04-17T13:58:59.390Z,2.00
2023-04-17T14:01:26.105Z,2.09
2023-04-17T14:03:52.935Z,2.11
2023-04-17T14:06:19.802Z,2.03
2023-04-17T14:08:46.440Z,2.07
2023-04-17T14:11:15.433Z,2.10
2023-04-17T14:13:42.016Z,2.10
2023-04-17T14:16:08.689Z,2.56
2023-04-17T14:18:35.406Z,2.42
2023-04-17T14:21:02.126Z,2.57
2023-04-17T14:23:29.329Z,2.69
2023-04-17T14:25:55.986Z,2.39
2023-04-17T14:28:23.552Z,2.73
2023-04-17T14:30:50.568Z,2.93
2023-04-17T14:33:17.309Z,2.63
2023-04-17T14:35:43.913Z,2.69
2023-04-17T14:38:10.651Z,2.34
2023-04-17T14:40:37.296Z,2.33
2023-04-17T14:43:03.962Z,2.45
2023-04-17T14:45:30.645Z,2.70
2023-04-17T14:47:57.772Z,2.80
2023-04-17T14:50:24.459Z,2.88
2023-04-17T14:52:51.080Z,2.74
2023-04-17T14:55:17.678Z,2.78
2023-04-17T14:57:44.283Z,3.07
2023-04-17T15:00:11.367Z,2.67
2023-04-17T15:02:38.089Z,2.77
2023-04-17T15:05:05.875Z,2.72
2023-04-17T15:07:32.563Z,2.80
2023-04-17T15:09:59.293Z,2.55
2023-04-17T15:12:26.964Z,2.54
2023-04-17T15:14:53.740Z,2.35
2023-04-17T15:17:20.443Z,2.17
2023-04-17T15:19:47.178Z,2.13
2023-04-17T15:22:13.836Z,1.83
2023-04-17T15:24:40.584Z,1.71
2023-04-17T15:27:07.229Z,1.96
2023-04-17T15:29:33.826Z,2.24
2023-04-17T15:32:00.667Z,2.15
2023-04-17T15:34:30.390Z,1.96
2023-04-17T15:36:57.340Z,2.23
2023-04-17T15:39:23.925Z,2.19
2023-04-17T15:41:50.521Z,2.38
2023-04-17T15:44:17.270Z,2.46
2023-04-17T15:46:44.210Z,2.49
2023-04-17T15:49:10.928Z,2.11
2023-04-17T15:51:39.031Z,2.03
2023-04-17T15:54:07.589Z,1.96
2023-04-17T15:56:34.195Z,1.93
2023-04-17T15:59:00.807Z,2.01
2023-04-17T16:01:27.489Z,2.00
2023-04-17T16:03:54.464Z,2.27
2023-04-17T16:06:21.368Z,2.49
2023-04-17T16:08:47.989Z,2.65
2023-04-17T16:11:14.598Z,2.68
2023-04-17T16:13:41.200Z,2.96
2023-04-17T16:16:08.056Z,2.68
2023-04-17T16:18:34.730Z,2.78
2023-04-17T16:21:01.341Z,2.63
2023-04-17T16:23:27.953Z,2.72
2023-04-17T16:25:54.595Z,2.63
2023-04-17T16:28:21.264Z,2.65
2023-04-17T16:30:48.020Z,2.49
2023-04-17T16:33:14.628Z,2.83
2023-04-17T16:35:41.275Z,2.68
2023-04-17T16:38:07.874Z,2.74
2023-04-17T16:40:34.489Z,2.76
2023-04-17T16:43:01.122Z,2.96
2023-04-17T16:45:29.983Z,2.95
2023-04-17T16:47:56.764Z,2.98
2023-04-17T16:50:25.467Z,2.95
2023-04-17T16:52:52.401Z,2.84
2023-04-17T16:55:19.126Z,3.17
2023-04-17T16:57:45.728Z,3.18
2023-04-17T17:00:12.790Z,3.14
2023-04-17T17:02:39.542Z,2.82
2023-04-17T17:05:07.594Z,2.80
2023-04-17T17:07:34.237Z,2.75
2023-04-17T17:10:00.841Z,2.84
2023-04-17T17:12:27.511Z,2.55
2023-04-17T17:14:54.292Z,2.60
2023-04-17T17:17:20.994Z,2.46
2023-04-17T17:19:47.634Z,2.49
2023-04-17T17:22:14.235Z,2.31
2023-04-17T17:24:40.880Z,2.30
2023-04-17T17:27:07.555Z,3.19
2023-04-17T17:29:34.214Z,2.28
2023-04-17T17:32:00.903Z,2.38
2023-04-17T17:34:27.670Z,2.18
2023-04-17T17:36:54.347Z,2.33
2023-04-17T17:39:21.013Z,2.28
2023-04-17T17:41:48.404Z,2.26
2023-04-17T17:44:15.288Z,2.24
2023-04-17T17:46:42.157Z,2.02
2023-04-17T17:49:08.874Z,2.24
2023-04-17T17:51:35.541Z,2.15
2023-04-17T17:54:02.182Z,2.34
2023-04-17T17:56:28.916Z,2.31
2023-04-17T17:58:55.643Z,2.42
2023-04-17T18:01:22.344Z,2.29
2023-04-17T18:03:50.004Z,2.39
2023-04-17T18:06:19.310Z,2.36
2023-04-17T18:08:45.925Z,2.35
2023-04-17T18:11:13.738Z,2.46
2023-04-17T18:13:40.452Z,2.30
2023-04-17T18:16:07.402Z,2.70
2023-04-17T18:18:34.090Z,5.02
2023-04-17T18:21:05.152Z,7.45
2023-04-17T18:23:31.835Z,3.78
2023-04-17T18:25:59.174Z,3.63
2023-04-17T18:28:26.492Z,3.31
2023-04-17T18:30:53.299Z,3.49
2023-04-17T18:33:20.730Z,3.65
2023-04-17T18:35:47.324Z,3.86
2023-04-17T18:38:13.967Z,3.81
2023-04-17T18:40:40.593Z,3.58
2023-04-17T18:43:07.180Z,3.43
2023-04-17T18:45:36.118Z,3.44
2023-04-17T18:48:02.955Z,3.80
2023-04-17T18:50:29.640Z,3.45
2023-04-17T18:52:56.372Z,3.65
2023-04-17T18:55:23.055Z,3.70
2023-04-17T18:57:49.682Z,4.13
2023-04-17T19:00:16.508Z,3.73
2023-04-17T19:02:44.178Z,3.70
2023-04-17T19:05:10.935Z,4.02
2023-04-17T19:07:39.403Z,4.04
2023-04-17T19:10:06.801Z,3.66
2023-04-17T19:12:33.434Z,3.85
2023-04-17T19:15:00.163Z,3.75
2023-04-17T19:17:26.859Z,3.98
2023-04-17T19:19:53.570Z,3.89
2023-04-17T19:22:20.197Z,3.94
2023-04-17T19:24:46.912Z,3.97
2023-04-17T19:27:13.522Z,3.88
2023-04-17T19:29:40.122Z,3.84
2023-04-17T19:32:06.789Z,4.15
2023-04-17T19:34:33.420Z,4.10
2023-04-17T19:37:00.055Z,4.03
2023-04-17T19:39:27.452Z,4.24
2023-04-17T19:41:54.132Z,4.43
2023-04-17T19:44:20.759Z,4.39
2023-04-17T19:46:47.434Z,4.32
2023-04-17T19:49:14.351Z,4.15
2023-04-17T19:51:41.316Z,4.17
2023-04-17T19:54:07.967Z,4.30
2023-04-17T19:56:34.678Z,4.29
2023-04-17T19:59:04.811Z,4.36
2023-04-17T20:01:47.821Z,4.41
2023-04-17T20:04:14.585Z,4.14
2023-04-17T20:06:41.378Z,4.04
2023-04-17T20:09:08.320Z,4.32
2023-04-17T20:11:34.915Z,4.27
2023-04-17T20:14:01.600Z,4.51
2023-04-17T20:16:28.375Z,4.50
2023-04-17T20:18:55.008Z,4.14
2023-04-17T20:21:21.995Z,4.53
2023-04-17T20:23:48.597Z,4.61
2023-04-17T20:26:15.706Z,4.43
2023-04-17T20:28:42.305Z,4.28
2023-04-17T20:31:09.033Z,4.52
2023-04-17T20:33:35.765Z,4.35
2023-04-17T20:36:02.515Z,4.39
2023-04-17T20:38:29.177Z,4.62
2023-04-17T20:40:55.797Z,4.45
2023-04-17T20:43:22.498Z,4.55
2023-04-17T20:45:50.041Z,4.62
2023-04-17T20:48:16.932Z,4.49
2023-04-17T20:50:43.841Z,4.50
2023-04-17T20:53:10.446Z,4.52
2023-04-17T20:55:37.641Z,4.59
2023-04-17T20:58:04.276Z,4.68
2023-04-17T21:00:30.876Z,4.58
2023-04-17T21:02:57.606Z,4.76
2023-04-17T21:05:24.471Z,4.76
2023-04-17T21:07:51.729Z,4.85
2023-04-17T21:10:19.325Z,5.02
2023-04-17T21:12:47.844Z,4.71
2023-04-17T21:15:14.576Z,4.96
2023-04-17T21:17:41.240Z,4.80
2023-04-17T21:20:10.972Z,5.05
2023-04-17T21:22:37.596Z,4.89
2023-04-17T21:25:04.630Z,4.99
2023-04-17T21:27:31.233Z,5.04
2023-04-17T21:29:57.828Z,5.05
2023-04-17T21:32:24.516Z,5.17
2023-04-17T21:34:51.137Z,5.33
2023-04-17T21:37:17.757Z,5.23
2023-04-17T21:39:44.370Z,5.41
2023-04-17T21:42:10.987Z,5.33
2023-04-17T21:44:37.623Z,5.63
2023-04-17T21:47:04.246Z,5.35
2023-04-17T21:49:30.834Z,5.13
2023-04-17T21:51:57.435Z,5.37
2023-04-17T21:54:24.081Z,5.33
2023-04-17T21:56:51.101Z,5.15
2023-04-17T21:59:17.710Z,5.33
2023-04-17T22:01:44.322Z,5.27
2023-04-17T22:04:11.253Z,5.08
2023-04-17T22:06:37.995Z,5.47
2023-04-17T22:09:04.633Z,5.27
2023-04-17T22:11:31.242Z,5.54
2023-04-17T22:13:57.866Z,5.11
2023-04-17T22:16:24.534Z,5.44
2023-04-17T22:18:51.281Z,5.50
2023-04-17T22:21:17.892Z,5.78
2023-04-17T22:23:44.815Z,5.72
2023-04-17T22:26:11.621Z,5.65
2023-04-17T22:28:38.304Z,5.80
2023-04-17T22:31:04.977Z,5.50
2023-04-17T22:33:31.668Z,5.42
2023-04-17T22:35:58.298Z,5.89
2023-04-17T22:38:24.904Z,5.44
2023-04-17T22:40:51.493Z,5.67
2023-04-17T22:43:18.103Z,5.82
2023-04-17T22:45:44.699Z,5.91
2023-04-17T22:48:11.281Z,5.56
2023-04-17T22:50:38.075Z,5.55
2023-04-17T22:53:05.154Z,5.69
2023-04-17T22:55:32.186Z,5.89
2023-04-17T22:58:01.557Z,5.90
2023-04-17T23:00:30.592Z,5.87
2023-04-17T23:02:57.547Z,5.90
2023-04-17T23:05:24.332Z,5.71
2023-04-17T23:07:51.011Z,6.24
2023-04-17T23:10:19.036Z,6.18
2023-04-17T23:12:45.657Z,5.86
2023-04-17T23:15:12.653Z,6.03
2023-04-17T23:17:39.341Z,6.00
2023-04-17T23:20:06.631Z,6.06
2023-04-17T23:22:33.348Z,6.31
2023-04-17T23:24:59.982Z,5.89
2023-04-17T23:27:26.589Z,5.75
2023-04-17T23:29:53.181Z,6.04
2023-04-17T23:32:19.870Z,6.17
2023-04-17T23:34:46.540Z,6.18
2023-04-17T23:37:13.171Z,6.06
2023-04-17T23:39:39.832Z,6.08
2023-04-17T23:42:06.499Z,5.99
2023-04-17T23:44:33.753Z,6.11
2023-04-17T23:47:00.424Z,6.45
2023-04-17T23:49:27.250Z,6.22
2023-04-17T23:51:53.898Z,6.80
2023-04-17T23:54:20.543Z,6.78
2023-04-17T23:56:47.129Z,6.38
2023-04-17T23:59:13.755Z,6.79
